createdAt,value
2022-10-22T00:00:00.927Z,51.20
2022-10-22T00:01:00.870Z,58.60
2022-10-22T00:02:00.869Z,73.20
2022-10-22T00:03:00.916Z,57.30
2022-10-22T00:04:00.886Z,68.50
2022-10-22T00:05:00.847Z,54.50
2022-10-22T00:06:00.827Z,55.30
2022-10-22T00:07:00.825Z,50.80
2022-10-22T00:08:00.806Z,49.80
2022-10-22T00:09:00.907Z,54.20
2022-10-22T00:10:00.809Z,57.30
2022-10-22T00:11:00.791Z,46.40
2022-10-22T00:12:00.766Z,52.90
2022-10-22T00:13:00.765Z,56.70
2022-10-22T00:14:00.759Z,48.90
2022-10-22T00:15:00.779Z,50.30
2022-10-22T00:16:00.734Z,54.70
2022-10-22T00:17:00.730Z,52.90
2022-10-22T00:18:00.735Z,45.50
2022-10-22T00:19:00.715Z,53.50
2022-10-22T00:20:00.717Z,44.40
2022-10-22T00:21:00.720Z,44.20
2022-10-22T00:22:00.696Z,44.80
2022-10-22T00:23:00.683Z,45.00
2022-10-22T00:24:00.679Z,46.60
2022-10-22T00:25:00.662Z,55.20
2022-10-22T00:26:01.449Z,50.40
2022-10-22T00:27:00.690Z,51.90
2022-10-22T00:28:00.642Z,56.10
2022-10-22T00:29:00.640Z,47.40
2022-10-22T00:30:00.621Z,47.10
2022-10-22T00:31:00.631Z,56.20
2022-10-22T00:32:00.622Z,47.10
2022-10-22T00:33:00.636Z,48.20
2022-10-22T00:34:00.603Z,46.80
2022-10-22T00:35:00.598Z,39.40
2022-10-22T00:36:00.577Z,58.40
2022-10-22T00:37:00.581Z,43.60
2022-10-22T00:38:00.576Z,45.10
2022-10-22T00:39:00.575Z,43.60
2022-10-22T00:40:00.542Z,45.90
2022-10-22T00:42:00.541Z,53.30
2022-10-22T00:43:00.510Z,45.90
2022-10-22T00:44:00.506Z,54.10
2022-10-22T00:45:00.518Z,54.30
2022-10-22T00:46:00.494Z,48.60
2022-10-22T00:47:00.483Z,47.90
2022-10-22T00:48:00.496Z,50.80
2022-10-22T00:49:00.466Z,50.90
2022-10-22T00:50:00.531Z,46.70
2022-10-22T00:51:00.462Z,51.70
2022-10-22T00:52:00.437Z,52.50
2022-10-22T00:53:00.723Z,51.70
2022-10-22T00:54:00.446Z,43.60
2022-10-22T00:55:00.425Z,67.40
2022-10-22T00:56:00.415Z,64.80
2022-10-22T00:57:00.398Z,48.80
2022-10-22T00:58:00.390Z,57.10
2022-10-22T00:59:00.410Z,47.60
2022-10-22T01:00:00.383Z,45.60
2022-10-22T01:01:00.444Z,52.90
2022-10-22T01:02:00.350Z,52.70
2022-10-22T01:03:00.342Z,52.50
2022-10-22T01:04:00.348Z,53.20
2022-10-22T01:05:00.328Z,53.10
2022-10-22T01:06:00.354Z,58.40
2022-10-22T01:07:00.325Z,52.10
2022-10-22T01:08:00.394Z,52.90
2022-10-22T01:09:00.330Z,48.80
2022-10-22T01:10:00.291Z,41.50
2022-10-22T01:11:00.276Z,55.50
2022-10-22T01:12:00.294Z,50.20
2022-10-22T01:13:00.274Z,56.70
2022-10-22T01:14:00.284Z,605.60
2022-10-22T01:15:00.247Z,782.30
2022-10-22T01:16:00.242Z,140.70
2022-10-22T01:17:00.231Z,85.00
2022-10-22T01:18:00.249Z,75.80
2022-10-22T01:19:00.212Z,54.00
2022-10-22T01:20:00.227Z,57.00
2022-10-22T01:21:00.189Z,61.00
2022-10-22T01:22:00.190Z,59.90
2022-10-22T01:23:00.176Z,50.30
2022-10-22T01:24:00.188Z,67.30
2022-10-22T01:25:00.189Z,71.10
2022-10-22T01:26:00.154Z,53.90
2022-10-22T01:27:00.142Z,39.60
2022-10-22T01:28:00.160Z,37.00
2022-10-22T01:29:00.159Z,63.30
2022-10-22T01:30:00.127Z,50.50
2022-10-22T01:31:00.114Z,45.20
2022-10-22T01:32:00.109Z,46.60
2022-10-22T01:33:00.105Z,48.70
2022-10-22T01:34:00.097Z,51.70
2022-10-22T01:35:00.112Z,59.40
2022-10-22T01:36:00.124Z,38.50
2022-10-22T01:37:00.078Z,37.60
2022-10-22T01:38:00.062Z,46.50
2022-10-22T01:39:00.044Z,43.40
2022-10-22T01:40:00.041Z,48.00
2022-10-22T01:41:00.053Z,58.20
2022-10-22T01:42:00.023Z,60.40
2022-10-22T01:43:00.014Z,44.70
2022-10-22T01:44:00.004Z,54.00
2022-10-22T01:45:00.014Z,57.60
2022-10-22T01:45:59.989Z,59.50
2022-10-22T01:47:00.002Z,52.80
2022-10-22T01:47:59.981Z,61.30
2022-10-22T01:48:59.973Z,91.50
2022-10-22T01:49:59.961Z,101.20
2022-10-22T01:50:59.981Z,110.60
2022-10-22T01:51:59.952Z,132.60
2022-10-22T01:52:59.930Z,190.40
2022-10-22T01:53:59.931Z,461.20
2022-10-22T01:54:59.917Z,478.20
2022-10-22T01:55:59.914Z,576.20
2022-10-22T01:56:59.929Z,401.20
2022-10-22T01:57:59.902Z,801.00
2022-10-22T01:58:59.891Z,509.30
2022-10-22T01:59:59.886Z,800.40
2022-10-22T02:00:59.945Z,625.20
2022-10-22T02:01:59.879Z,939.60
2022-10-22T02:02:59.905Z,413.00
2022-10-22T02:04:00.485Z,901.30
2022-10-22T02:04:59.850Z,419.70
2022-10-22T02:05:59.830Z,247.00
2022-10-22T02:06:59.847Z,223.40
2022-10-22T02:07:59.828Z,749.30
2022-10-22T02:08:59.851Z,395.30
2022-10-22T02:09:59.857Z,532.70
2022-10-22T02:10:59.805Z,183.90
2022-10-22T02:11:59.833Z,448.70
2022-10-22T02:12:59.818Z,484.70
2022-10-22T02:13:59.785Z,212.50
2022-10-22T02:14:59.769Z,636.20
2022-10-22T02:15:59.804Z,703.70
2022-10-22T02:16:59.768Z,374.00
2022-10-22T02:17:59.748Z,157.50
2022-10-22T02:18:59.743Z,712.90
2022-10-22T02:19:59.785Z,882.80
2022-10-22T02:20:59.755Z,699.60
2022-10-22T02:21:59.727Z,531.40
2022-10-22T02:22:59.695Z,542.40
2022-10-22T02:23:59.703Z,99.00
2022-10-22T02:24:59.717Z,145.80
2022-10-22T02:27:10.993Z,208.20
2022-10-22T02:28:11.001Z,170.20
2022-10-22T02:29:10.988Z,147.50
2022-10-22T02:30:11.022Z,121.80
2022-10-22T02:31:10.965Z,297.40
2022-10-22T02:32:10.978Z,209.20
2022-10-22T02:33:10.960Z,83.20
2022-10-22T02:34:10.949Z,81.40
2022-10-22T02:35:10.940Z,74.90
2022-10-22T02:36:10.945Z,111.90
2022-10-22T02:37:10.969Z,69.80
2022-10-22T02:38:10.929Z,124.40
2022-10-22T02:39:11.009Z,92.20
2022-10-22T02:40:10.914Z,137.20
2022-10-22T02:41:10.885Z,147.30
2022-10-22T02:42:10.882Z,204.80
2022-10-22T02:43:10.897Z,220.90
2022-10-22T02:44:10.885Z,204.20
2022-10-22T02:45:10.902Z,271.70
2022-10-22T02:46:10.849Z,198.80
2022-10-22T02:47:10.838Z,87.70
2022-10-22T02:48:10.958Z,81.70
2022-10-22T02:49:10.855Z,164.40
2022-10-22T02:50:10.828Z,217.90
2022-10-22T02:51:10.842Z,176.80
2022-10-22T02:52:10.814Z,276.50
2022-10-22T02:53:10.811Z,270.00
2022-10-22T02:54:10.795Z,305.20
2022-10-22T02:55:10.780Z,258.90
2022-10-22T02:56:10.803Z,194.10
2022-10-22T02:57:10.852Z,192.00
2022-10-22T02:58:10.769Z,183.20
2022-10-22T02:59:10.743Z,180.70
2022-10-22T03:00:10.740Z,242.80
2022-10-22T03:01:13.754Z,247.50
2022-10-22T03:02:11.784Z,163.50
2022-10-22T03:03:10.724Z,232.10
2022-10-22T03:04:10.721Z,159.20
2022-10-22T03:05:10.713Z,96.90
2022-10-22T03:06:10.697Z,83.30
2022-10-22T03:07:10.685Z,89.80
2022-10-22T03:08:10.751Z,83.80
2022-10-22T03:09:10.673Z,95.10
2022-10-22T03:10:10.676Z,121.90
2022-10-22T03:11:10.662Z,84.10
2022-10-22T03:12:10.649Z,129.60
2022-10-22T03:13:10.638Z,97.80
2022-10-22T03:14:10.678Z,112.10
2022-10-22T03:15:10.618Z,125.10
2022-10-22T03:16:10.614Z,217.50
2022-10-22T03:17:10.605Z,214.80
2022-10-22T03:18:10.609Z,150.10
2022-10-22T03:19:10.587Z,187.90
2022-10-22T03:20:10.606Z,262.30
2022-10-22T03:21:10.576Z,258.20
2022-10-22T03:22:10.565Z,187.90
2022-10-22T03:23:10.561Z,203.00
2022-10-22T03:24:10.553Z,129.40
2022-10-22T03:25:10.570Z,98.40
2022-10-22T03:26:10.537Z,94.80
2022-10-22T03:27:10.518Z,94.40
2022-10-22T03:28:10.526Z,78.70
2022-10-22T03:29:10.526Z,70.10
2022-10-22T03:30:10.500Z,114.70
2022-10-22T03:31:10.522Z,124.40
2022-10-22T03:32:10.486Z,82.30
2022-10-22T03:33:10.478Z,79.40
2022-10-22T03:34:10.480Z,75.60
2022-10-22T03:35:10.468Z,68.30
2022-10-22T03:36:10.482Z,74.50
2022-10-22T03:37:10.442Z,58.40
2022-10-22T03:38:10.435Z,55.70
2022-10-22T03:39:10.429Z,59.30
2022-10-22T03:40:10.424Z,63.00
2022-10-22T03:41:10.429Z,60.40
2022-10-22T03:42:10.415Z,74.30
2022-10-22T03:43:10.398Z,449.50
2022-10-22T03:44:10.391Z,224.70
2022-10-22T03:45:10.388Z,79.50
2022-10-22T03:46:10.380Z,94.50
2022-10-22T03:47:10.441Z,83.50
2022-10-22T03:48:10.368Z,86.10
2022-10-22T03:49:10.352Z,61.70
2022-10-22T03:50:10.357Z,66.30
2022-10-22T03:51:10.346Z,61.70
2022-10-22T03:52:10.350Z,53.90
2022-10-22T03:53:10.339Z,66.50
2022-10-22T03:54:10.321Z,53.60
2022-10-22T03:55:10.308Z,64.40
2022-10-22T03:56:10.305Z,71.30
2022-10-22T03:57:10.288Z,56.90
2022-10-22T03:58:10.282Z,46.60
2022-10-22T03:59:10.300Z,49.10
2022-10-22T04:00:10.278Z,54.30
2022-10-22T04:01:10.303Z,45.50
2022-10-22T04:02:10.250Z,45.70
2022-10-22T04:03:10.245Z,47.30
2022-10-22T04:04:10.241Z,64.40
2022-10-22T04:05:10.354Z,57.20
2022-10-22T04:06:10.244Z,45.40
2022-10-22T04:07:10.217Z,44.50
2022-10-22T04:08:10.219Z,49.60
2022-10-22T04:09:10.265Z,46.60
2022-10-22T04:10:10.181Z,46.30
2022-10-22T04:11:10.196Z,43.60
2022-10-22T04:12:10.172Z,45.10
2022-10-22T04:13:10.177Z,42.40
2022-10-22T04:14:10.165Z,39.40
2022-10-22T04:15:10.146Z,38.40
2022-10-22T04:16:10.162Z,37.40
2022-10-22T04:17:10.136Z,42.90
2022-10-22T04:18:10.126Z,40.50
2022-10-22T04:19:10.127Z,41.20
2022-10-22T04:20:10.115Z,38.80
2022-10-22T04:21:10.100Z,34.70
2022-10-22T04:22:10.109Z,32.00
2022-10-22T04:23:10.082Z,33.90
2022-10-22T04:24:10.071Z,31.90
2022-10-22T04:25:10.061Z,28.40
2022-10-22T04:26:10.066Z,21.60
2022-10-22T04:27:10.053Z,19.80
2022-10-22T04:28:10.073Z,19.80
2022-10-22T04:29:13.377Z,24.40
2022-10-22T04:30:11.132Z,15.20
2022-10-22T04:31:10.034Z,14.40
2022-10-22T04:32:10.029Z,15.60
2022-10-22T04:33:10.004Z,14.90
2022-10-22T04:34:10.018Z,15.20
2022-10-22T04:35:09.985Z,13.70
2022-10-22T04:36:09.982Z,15.50
2022-10-22T04:37:09.971Z,11.70
2022-10-22T04:38:09.964Z,14.30
2022-10-22T04:39:09.959Z,13.30
2022-10-22T04:40:10.005Z,13.20
2022-10-22T04:41:09.951Z,15.30
2022-10-22T04:42:09.937Z,13.10
2022-10-22T04:43:09.929Z,17.10
2022-10-22T04:44:12.417Z,14.70
2022-10-22T04:45:10.945Z,18.40
2022-10-22T04:46:09.915Z,16.60
2022-10-22T04:47:09.899Z,14.60
2022-10-22T04:48:09.892Z,17.10
2022-10-22T04:49:09.878Z,18.20
2022-10-22T04:50:09.874Z,18.00
2022-10-22T04:51:09.896Z,16.40
2022-10-22T04:52:09.857Z,16.50
2022-10-22T04:53:09.843Z,15.80
2022-10-22T04:54:09.839Z,11.60
2022-10-22T04:55:09.821Z,10.70
2022-10-22T04:56:09.864Z,9.90
2022-10-22T04:57:09.843Z,8.70
2022-10-22T04:58:09.817Z,8.10
2022-10-22T04:59:09.800Z,8.10
2022-10-22T05:00:09.805Z,7.60
2022-10-22T05:01:09.806Z,8.60
2022-10-22T05:02:09.784Z,6.90
2022-10-22T05:03:09.864Z,9.10
2022-10-22T05:04:09.758Z,7.40
2022-10-22T05:05:09.749Z,7.70
2022-10-22T05:06:09.771Z,7.40
2022-10-22T05:07:09.753Z,5.80
2022-10-22T05:08:09.745Z,6.60
2022-10-22T05:09:09.768Z,7.50
2022-10-22T05:10:09.705Z,8.10
2022-10-22T05:11:09.694Z,6.10
2022-10-22T05:12:09.717Z,5.60
2022-10-22T05:13:09.691Z,5.30
2022-10-22T05:14:09.721Z,6.70
2022-10-22T05:15:09.677Z,7.10
2022-10-22T05:16:09.670Z,6.60
2022-10-22T05:17:09.663Z,5.90
2022-10-22T05:18:09.653Z,5.60
2022-10-22T05:19:09.662Z,7.00
2022-10-22T05:20:09.629Z,4.90
2022-10-22T05:21:09.630Z,6.50
2022-10-22T05:22:09.614Z,6.90
2022-10-22T05:23:09.607Z,7.70
2022-10-22T05:24:09.598Z,7.80
2022-10-22T05:25:09.615Z,6.90
2022-10-22T05:26:09.586Z,8.40
2022-10-22T05:27:09.627Z,7.40
2022-10-22T05:28:09.575Z,7.10
2022-10-22T05:29:09.562Z,7.20
2022-10-22T05:30:09.555Z,7.50
2022-10-22T05:31:09.583Z,8.10
2022-10-22T05:32:09.551Z,7.70
2022-10-22T05:33:09.537Z,7.00
2022-10-22T05:34:09.522Z,8.70
2022-10-22T05:35:09.512Z,7.50
2022-10-22T05:36:09.524Z,7.00
2022-10-22T05:37:09.491Z,7.30
2022-10-22T05:38:09.492Z,6.90
2022-10-22T05:39:09.480Z,5.90
2022-10-22T05:40:19.116Z,6.60
2022-10-22T05:41:10.484Z,6.70
2022-10-22T05:42:09.467Z,6.70
2022-10-22T05:43:09.447Z,6.30
2022-10-22T05:44:09.439Z,6.30
2022-10-22T05:45:09.440Z,6.80
2022-10-22T05:46:09.427Z,7.70
2022-10-22T05:47:09.452Z,7.60
2022-10-22T05:48:09.430Z,5.90
2022-10-22T05:49:09.406Z,7.70
2022-10-22T05:50:09.390Z,6.80
2022-10-22T05:51:09.379Z,5.90
2022-10-22T05:52:09.377Z,6.70
2022-10-22T05:53:09.371Z,7.20
2022-10-22T05:54:09.372Z,6.30
2022-10-22T05:55:09.349Z,6.00
2022-10-22T05:56:09.338Z,7.00
2022-10-22T05:57:09.332Z,7.70
2022-10-22T05:58:09.324Z,7.20
2022-10-22T05:59:09.332Z,21.00
2022-10-22T06:00:11.701Z,38.80
2022-10-22T06:01:09.303Z,65.90
2022-10-22T06:02:09.343Z,42.80
2022-10-22T06:03:09.286Z,19.00
2022-10-22T06:04:09.302Z,11.70
2022-10-22T06:05:09.270Z,7.30
2022-10-22T06:06:09.264Z,10.50
2022-10-22T06:07:09.248Z,9.50
2022-10-22T06:08:09.277Z,9.00
2022-10-22T06:09:09.370Z,8.50
2022-10-22T06:10:09.430Z,9.20
2022-10-22T06:11:09.214Z,11.70
2022-10-22T06:12:09.411Z,9.40
2022-10-22T06:13:09.257Z,9.10
2022-10-22T06:14:09.190Z,6.60
2022-10-22T06:15:09.242Z,7.80
2022-10-22T06:16:09.178Z,7.90
2022-10-22T06:17:09.389Z,8.90
2022-10-22T06:18:09.167Z,9.20
2022-10-22T06:19:09.221Z,11.30
2022-10-22T06:20:09.155Z,10.30
2022-10-22T06:21:09.204Z,9.00
2022-10-22T06:22:09.135Z,10.10
2022-10-22T06:23:09.150Z,7.40
2022-10-22T06:24:09.131Z,7.60
2022-10-22T06:25:09.141Z,7.50
2022-10-22T06:26:09.095Z,12.70
2022-10-22T06:27:09.129Z,12.30
2022-10-22T06:28:09.095Z,18.10
2022-10-22T06:29:09.155Z,15.60
2022-10-22T06:30:09.081Z,14.60
2022-10-22T06:31:09.223Z,17.70
2022-10-22T06:32:09.061Z,16.70
2022-10-22T06:33:09.044Z,8.10
2022-10-22T06:34:09.300Z,5.90
2022-10-22T06:35:09.037Z,6.30
2022-10-22T06:36:09.019Z,6.80
2022-10-22T06:37:09.026Z,7.40
2022-10-22T06:38:09.030Z,7.70
2022-10-22T06:39:09.003Z,7.80
2022-10-22T06:40:08.998Z,9.10
2022-10-22T06:41:08.993Z,8.20
2022-10-22T06:42:08.969Z,7.30
2022-10-22T06:43:08.996Z,8.50
2022-10-22T06:44:09.096Z,11.70
2022-10-22T06:45:08.953Z,11.10
2022-10-22T06:46:08.957Z,12.90
2022-10-22T06:47:08.933Z,9.30
2022-10-22T06:48:08.924Z,9.70
2022-10-22T06:49:08.927Z,9.60
2022-10-22T06:50:08.925Z,9.50
2022-10-22T06:51:08.902Z,10.40
2022-10-22T06:52:09.007Z,9.00
2022-10-22T06:53:08.906Z,8.90
2022-10-22T06:54:08.885Z,7.70
2022-10-22T06:55:08.869Z,7.20
2022-10-22T06:56:08.896Z,8.10
2022-10-22T06:57:08.891Z,6.90
2022-10-22T06:58:08.860Z,7.60
2022-10-22T06:59:08.839Z,9.00
2022-10-22T07:00:08.844Z,6.70
2022-10-22T07:01:08.883Z,6.90
2022-10-22T07:02:08.830Z,8.90
2022-10-22T07:03:08.820Z,6.00
2022-10-22T07:04:08.817Z,6.80
2022-10-22T07:05:08.783Z,6.00
2022-10-22T07:06:08.772Z,6.50
2022-10-22T07:07:08.783Z,7.30
2022-10-22T07:08:08.764Z,6.20
2022-10-22T07:09:08.816Z,7.70
2022-10-22T07:10:08.748Z,6.50
2022-10-22T07:11:08.738Z,6.50
2022-10-22T07:12:08.735Z,6.10
2022-10-22T07:13:08.775Z,6.50
2022-10-22T07:14:08.726Z,6.50
2022-10-22T07:15:08.704Z,5.90
2022-10-22T07:16:08.743Z,6.20
2022-10-22T07:17:08.940Z,4.70
2022-10-22T07:18:09.926Z,5.00
2022-10-22T07:19:08.706Z,6.00
2022-10-22T07:20:08.697Z,4.30
2022-10-22T07:21:08.670Z,5.50
2022-10-22T07:22:08.657Z,5.20
2022-10-22T07:23:08.649Z,7.50
2022-10-22T07:24:08.663Z,6.00
2022-10-22T07:25:08.640Z,5.70
2022-10-22T07:26:08.625Z,6.90
2022-10-22T07:27:10.969Z,6.40
2022-10-22T07:28:08.625Z,6.40
2022-10-22T07:29:09.509Z,7.90
2022-10-22T07:30:08.594Z,7.00
2022-10-22T07:31:08.609Z,6.70
2022-10-22T07:32:08.612Z,8.00
2022-10-22T07:33:08.563Z,7.00
2022-10-22T07:37:02.619Z,5.30
2022-10-22T07:38:02.591Z,6.00
2022-10-22T07:39:02.583Z,5.40
2022-10-22T07:40:03.931Z,5.90
2022-10-22T07:41:02.551Z,7.60
2022-10-22T07:42:02.544Z,6.40
2022-10-22T07:43:02.563Z,7.20
2022-10-22T07:44:02.536Z,5.70
2022-10-22T07:45:02.525Z,6.40
2022-10-22T07:46:02.505Z,5.40
2022-10-22T07:47:02.494Z,6.20
2022-10-22T07:48:02.499Z,6.40
2022-10-22T07:49:02.922Z,6.50
2022-10-22T07:50:02.479Z,6.90
2022-10-22T07:51:02.469Z,6.90
2022-10-22T07:52:02.459Z,6.20
2022-10-22T07:53:02.456Z,7.20
2022-10-22T07:54:02.454Z,6.00
2022-10-22T07:55:02.574Z,7.40
2022-10-22T07:56:02.427Z,7.60
2022-10-22T07:57:02.416Z,7.00
2022-10-22T07:58:02.409Z,7.00
2022-10-22T08:00:02.391Z,10.10
2022-10-22T08:01:02.458Z,9.50
2022-10-22T08:02:03.123Z,8.10
2022-10-22T08:03:02.378Z,9.50
2022-10-22T08:04:02.370Z,7.60
2022-10-22T08:05:02.345Z,7.40
2022-10-22T08:06:02.331Z,7.40
2022-10-22T08:07:02.335Z,7.80
2022-10-22T08:08:02.329Z,7.60
2022-10-22T08:09:02.370Z,6.30
2022-10-22T08:10:02.308Z,7.20
2022-10-22T08:11:02.316Z,7.80
2022-10-22T08:12:02.333Z,9.80
2022-10-22T08:13:02.278Z,7.30
2022-10-22T08:14:02.268Z,7.90
2022-10-22T08:15:02.257Z,8.50
2022-10-22T08:16:02.267Z,9.30
2022-10-22T08:17:02.415Z,8.00
2022-10-22T08:18:02.449Z,8.30
2022-10-22T08:19:03.141Z,7.30
2022-10-22T08:20:02.213Z,8.60
2022-10-22T08:21:02.197Z,9.00
2022-10-22T08:22:02.410Z,13.00
2022-10-22T08:23:02.206Z,12.50
2022-10-22T08:24:02.292Z,13.80
2022-10-22T08:25:02.176Z,13.60
2022-10-22T08:26:02.194Z,11.10
2022-10-22T08:27:02.161Z,10.30
2022-10-22T08:28:02.181Z,11.80
2022-10-22T08:29:02.246Z,12.20
2022-10-22T08:30:02.838Z,11.50
2022-10-22T08:31:02.131Z,9.60
2022-10-22T08:32:02.141Z,9.00
2022-10-22T08:33:02.100Z,9.40
2022-10-22T08:34:02.100Z,8.60
2022-10-22T08:35:02.302Z,9.60
2022-10-22T08:36:02.077Z,9.40
2022-10-22T08:37:02.245Z,8.30
2022-10-22T08:38:02.367Z,7.40
2022-10-22T08:39:02.055Z,8.60
2022-10-22T08:40:02.073Z,9.50
2022-10-22T08:41:02.121Z,10.00
2022-10-22T08:42:02.094Z,8.70
2022-10-22T08:43:02.046Z,8.90
2022-10-22T08:44:02.046Z,11.30
2022-10-22T08:45:02.007Z,9.00
2022-10-22T08:46:03.083Z,9.70
2022-10-22T08:47:02.025Z,10.30
2022-10-22T08:48:01.983Z,8.40
2022-10-22T08:49:02.041Z,11.00
2022-10-22T08:50:01.953Z,10.60
2022-10-22T08:51:01.958Z,10.00
2022-10-22T08:52:01.963Z,7.30
2022-10-22T08:53:01.947Z,7.90
2022-10-22T08:54:01.951Z,9.80
2022-10-22T08:55:02.053Z,7.60
2022-10-22T08:56:01.899Z,9.50
2022-10-22T08:57:01.938Z,10.00
2022-10-22T08:58:01.888Z,9.30
2022-10-22T08:59:01.884Z,9.00
2022-10-22T09:00:01.909Z,10.50
2022-10-22T09:01:09.416Z,9.70
2022-10-22T09:02:01.863Z,10.50
2022-10-22T09:03:01.844Z,10.20
2022-10-22T09:04:01.907Z,9.00
2022-10-22T09:05:01.845Z,10.00
2022-10-22T09:06:01.855Z,11.30
2022-10-22T09:07:01.805Z,8.80
2022-10-22T09:08:01.823Z,9.30
2022-10-22T09:09:01.855Z,9.40
2022-10-22T09:10:01.802Z,10.10
2022-10-22T09:11:01.783Z,9.90
2022-10-22T09:12:01.765Z,10.80
2022-10-22T09:13:01.791Z,9.70
2022-10-22T09:14:01.910Z,9.50
2022-10-22T09:15:01.761Z,10.90
2022-10-22T09:16:01.766Z,10.50
2022-10-22T09:17:01.723Z,11.60
2022-10-22T09:18:02.791Z,12.60
2022-10-22T09:19:01.758Z,9.50
2022-10-22T09:20:01.802Z,10.80
2022-10-22T09:21:01.699Z,9.80
2022-10-22T09:22:01.705Z,9.70
2022-10-22T09:23:01.663Z,10.50
2022-10-22T09:24:01.663Z,10.90
2022-10-22T09:25:01.682Z,12.00
2022-10-22T09:26:01.639Z,13.20
2022-10-22T09:27:01.640Z,10.50
2022-10-22T09:28:01.627Z,12.40
2022-10-22T09:29:01.644Z,12.20
2022-10-22T09:30:01.755Z,10.30
2022-10-22T09:31:01.686Z,10.10
2022-10-22T09:32:01.653Z,11.50
2022-10-22T09:33:01.581Z,13.20
2022-10-22T09:34:01.580Z,11.50
2022-10-22T09:35:01.561Z,10.40
2022-10-22T09:36:01.569Z,12.30
2022-10-22T09:37:01.548Z,11.40
2022-10-22T09:38:01.531Z,11.00
2022-10-22T09:39:01.527Z,12.70
2022-10-22T09:40:01.551Z,10.20
2022-10-22T09:41:01.509Z,12.10
2022-10-22T09:42:01.496Z,11.20
2022-10-22T09:43:01.502Z,11.60
2022-10-22T09:44:01.479Z,11.20
2022-10-22T09:45:01.734Z,10.80
2022-10-22T09:46:01.491Z,10.70
2022-10-22T09:47:01.478Z,11.30
2022-10-22T09:48:02.346Z,11.70
2022-10-22T09:49:01.499Z,12.20
2022-10-22T09:50:01.428Z,15.10
2022-10-22T09:51:04.191Z,10.10
2022-10-22T09:52:03.632Z,11.80
2022-10-22T09:53:02.601Z,10.50
2022-10-22T09:54:03.385Z,9.70
2022-10-22T09:55:01.417Z,10.70
2022-10-22T09:56:01.494Z,12.30
2022-10-22T09:57:01.705Z,14.50
2022-10-22T09:58:01.390Z,13.30
2022-10-22T09:59:01.546Z,10.30
2022-10-22T10:00:01.342Z,10.50
2022-10-22T10:01:01.343Z,11.70
2022-10-22T10:02:13.427Z,13.20
2022-10-22T10:03:02.360Z,10.90
2022-10-22T10:04:04.432Z,11.00
2022-10-22T10:05:01.297Z,9.80
2022-10-22T10:06:04.818Z,9.80
2022-10-22T10:07:01.274Z,10.40
2022-10-22T10:08:01.574Z,10.90
2022-10-22T10:09:01.538Z,8.50
2022-10-22T10:10:01.277Z,11.20
2022-10-22T10:11:01.241Z,12.70
2022-10-22T10:12:01.426Z,10.80
2022-10-22T10:13:01.228Z,10.60
2022-10-22T10:14:01.405Z,11.50
2022-10-22T10:15:05.466Z,10.50
2022-10-22T10:16:01.211Z,10.40
2022-10-22T10:17:01.267Z,9.30
2022-10-22T10:18:01.166Z,10.70
2022-10-22T10:19:01.162Z,12.40
2022-10-22T10:20:03.778Z,10.70
2022-10-22T10:21:01.202Z,10.80
2022-10-22T10:22:01.160Z,12.20
2022-10-22T10:23:01.138Z,10.90
2022-10-22T10:24:01.141Z,11.40
2022-10-22T10:25:01.129Z,10.90
2022-10-22T10:26:01.120Z,11.70
2022-10-22T10:27:01.117Z,9.70
2022-10-22T10:28:01.095Z,10.20
2022-10-22T10:29:01.111Z,9.60
2022-10-22T10:30:01.133Z,9.00
2022-10-22T10:31:01.129Z,9.10
2022-10-22T10:32:01.086Z,11.90
2022-10-22T10:33:01.073Z,10.20
2022-10-22T10:34:01.049Z,8.90
2022-10-22T10:35:01.035Z,9.60
2022-10-22T10:36:01.015Z,7.60
2022-10-22T10:37:01.014Z,7.80
2022-10-22T10:38:01.224Z,8.20
2022-10-22T10:39:01.040Z,8.30
2022-10-22T10:40:01.133Z,9.00
2022-10-22T10:41:00.992Z,9.80
2022-10-22T10:42:01.037Z,8.70
2022-10-22T10:43:01.077Z,8.20
2022-10-22T10:44:01.163Z,8.90
2022-10-22T10:45:01.027Z,8.00
2022-10-22T10:46:00.936Z,9.50
2022-10-22T10:47:00.923Z,8.90
2022-10-22T10:48:00.933Z,8.70
2022-10-22T10:49:00.920Z,9.00
2022-10-22T10:50:00.903Z,9.70
2022-10-22T10:51:00.904Z,7.00
2022-10-22T10:52:01.172Z,7.90
2022-10-22T10:53:01.210Z,7.90
2022-10-22T10:54:00.911Z,7.50
2022-10-22T10:55:00.874Z,9.60
2022-10-22T10:56:00.883Z,9.60
2022-10-22T10:57:00.850Z,8.80
2022-10-22T10:58:00.833Z,8.60
2022-10-22T10:59:00.826Z,7.50
2022-10-22T11:00:00.825Z,7.50
2022-10-22T11:01:00.814Z,7.70
2022-10-22T11:02:00.857Z,7.70
2022-10-22T11:03:00.809Z,10.30
2022-10-22T11:04:00.801Z,7.20
2022-10-22T11:05:00.793Z,8.50
2022-10-22T11:06:00.817Z,7.50
2022-10-22T11:07:10.965Z,6.40
2022-10-22T11:08:01.762Z,7.30
2022-10-22T11:09:00.849Z,7.60
2022-10-22T11:10:00.777Z,7.20
2022-10-22T11:11:00.748Z,6.40
2022-10-22T11:12:00.751Z,8.00
2022-10-22T11:13:00.924Z,8.70
2022-10-22T11:14:00.721Z,8.40
2022-10-22T11:15:00.710Z,9.10
2022-10-22T11:16:00.738Z,7.30
2022-10-22T11:17:00.718Z,7.90
2022-10-22T11:18:00.688Z,5.60
2022-10-22T11:19:00.688Z,6.80
2022-10-22T11:20:00.810Z,6.60
2022-10-22T11:21:00.690Z,8.50
2022-10-22T11:22:00.658Z,9.60
2022-10-22T11:23:18.878Z,8.20
2022-10-22T11:24:01.649Z,8.50
2022-10-22T11:25:00.638Z,6.90
2022-10-22T11:26:00.634Z,8.10
2022-10-22T11:27:00.687Z,7.50
2022-10-22T11:28:06.639Z,7.10
2022-10-22T11:29:01.596Z,7.50
2022-10-22T11:30:00.594Z,8.80
2022-10-22T11:31:00.594Z,7.10
2022-10-22T11:32:00.595Z,10.60
2022-10-22T11:33:00.565Z,8.60
2022-10-22T11:34:09.858Z,8.20
2022-10-22T11:35:01.559Z,7.30
2022-10-22T11:36:00.574Z,7.80
2022-10-22T11:37:00.533Z,7.90
2022-10-22T11:38:00.521Z,8.10
2022-10-22T11:39:00.520Z,9.50
2022-10-22T11:40:00.530Z,7.20
2022-10-22T11:41:00.498Z,7.50
2022-10-22T11:42:00.493Z,9.40
2022-10-22T11:43:00.539Z,7.20
2022-10-22T11:44:00.467Z,8.90
2022-10-22T11:45:00.464Z,6.10
2022-10-22T11:46:00.473Z,8.20
2022-10-22T11:47:00.443Z,9.10
2022-10-22T11:48:00.463Z,8.10
2022-10-22T11:49:00.433Z,7.20
2022-10-22T11:50:00.428Z,7.00
2022-10-22T11:51:00.443Z,9.90
2022-10-22T11:52:04.275Z,8.70
2022-10-22T11:53:00.570Z,9.10
2022-10-22T11:54:00.396Z,6.80
2022-10-22T11:55:00.383Z,7.20
2022-10-22T11:56:00.371Z,9.20
2022-10-22T11:57:00.381Z,6.20
2022-10-22T11:58:00.361Z,8.20
2022-10-22T11:59:00.817Z,8.20
2022-10-22T12:00:00.338Z,7.30
2022-10-22T12:01:00.466Z,7.90
2022-10-22T12:02:00.337Z,7.30
2022-10-22T12:03:00.319Z,7.70
2022-10-22T12:04:00.333Z,7.80
2022-10-22T12:05:00.296Z,8.30
2022-10-22T12:06:00.285Z,8.80
2022-10-22T12:07:00.283Z,9.20
2022-10-22T12:08:00.275Z,6.70
2022-10-22T12:09:00.329Z,6.50
2022-10-22T12:10:00.378Z,7.60
2022-10-22T12:11:00.245Z,9.30
2022-10-22T12:12:00.233Z,8.70
2022-10-22T12:13:00.262Z,9.10
2022-10-22T12:14:00.227Z,11.00
2022-10-22T12:15:00.252Z,9.10
2022-10-22T12:16:00.238Z,8.30
2022-10-22T12:17:00.213Z,7.70
2022-10-22T12:18:00.308Z,8.00
2022-10-22T12:19:00.203Z,8.90
2022-10-22T12:20:02.264Z,8.60
2022-10-22T12:21:00.171Z,7.70
2022-10-22T12:22:00.188Z,7.50
2022-10-22T12:23:00.147Z,8.90
2022-10-22T12:24:00.167Z,9.30
2022-10-22T12:25:00.167Z,6.90
2022-10-22T12:26:00.117Z,7.20
2022-10-22T12:27:00.122Z,7.30
2022-10-22T12:28:00.174Z,9.20
2022-10-22T12:29:00.107Z,9.80
2022-10-22T12:30:00.122Z,8.10
2022-10-22T12:31:00.162Z,9.40
2022-10-22T12:32:00.087Z,7.40
2022-10-22T12:33:00.111Z,8.40
2022-10-22T12:34:00.068Z,8.30
2022-10-22T12:35:00.074Z,7.60
2022-10-22T12:36:00.068Z,6.10
2022-10-22T12:37:00.091Z,6.60
2022-10-22T12:38:00.107Z,9.30
2022-10-22T12:39:00.267Z,7.80
2022-10-22T12:40:00.022Z,7.70
2022-10-22T12:41:00.009Z,11.70
2022-10-22T12:41:59.999Z,8.30
2022-10-22T12:43:00.027Z,8.30
2022-10-22T12:44:00.003Z,8.00
2022-10-22T12:44:59.972Z,7.70
2022-10-22T12:45:59.967Z,8.70
2022-10-22T12:46:59.973Z,8.40
2022-10-22T12:47:59.973Z,8.60
2022-10-22T12:48:59.946Z,7.00
2022-10-22T12:49:59.973Z,9.70
2022-10-22T12:50:59.952Z,7.80
2022-10-22T12:51:59.917Z,6.80
2022-10-22T12:52:59.921Z,6.60
2022-10-22T12:53:59.915Z,7.00
2022-10-22T12:54:59.890Z,7.40
2022-10-22T12:55:59.875Z,6.50
2022-10-22T12:56:59.959Z,7.20
2022-10-22T12:57:59.886Z,7.20
2022-10-22T12:58:59.869Z,7.10
2022-10-22T13:00:59.987Z,5.80
2022-10-22T13:01:59.831Z,6.50
2022-10-22T13:02:59.861Z,6.10
2022-10-22T13:03:59.815Z,8.40
2022-10-22T13:04:59.799Z,6.00
2022-10-22T13:05:59.828Z,4.60
2022-10-22T13:06:59.788Z,6.10
2022-10-22T13:07:59.826Z,7.50